Time;durP1;ratioP1;P1;durP2;ratioP2;P2;SDS_P1;SDS_P2;PMS_P1;PMS_P2;Temp;Humidity;BMP_temperature;BMP_pressure;BME280_temperature;BME280_humidity;BME280_pressure;Samples;Min_cycle;Max_cycle;Signal;HPM_P1;HPM_P2
2021/03/07 00:13:40;;;;;;;4.77;0.80;;;21.50;43.60;;;;;;20857035;28;20056;-19
2021/03/07 00:23:41;;;;;;;2.65;1.38;;;21.30;43.90;;;;;;20893175;28;20033;-19
2021/03/07 00:33:42;;;;;;;2.08;0.68;;;21.10;43.90;;;;;;20904900;28;20408;-19
2021/03/07 00:43:42;;;;;;;3.47;0.90;;;20.90;43.90;;;;;;20892044;28;20473;-20
2021/03/07 00:53:43;;;;;;;2.95;0.90;;;20.70;43.90;;;;;;20903890;28;20033;-19
2021/03/07 01:03:44;;;;;;;4.97;0.85;;;20.60;43.70;;;;;;20903637;28;20067;-22
2021/03/07 01:13:44;;;;;;;3.53;1.25;;;20.50;43.40;;;;;;20891205;28;20021;-20
2021/03/07 01:23:45;;;;;;;3.63;1.10;;;20.30;43.20;;;;;;20903583;28;20064;-23
2021/03/07 01:33:45;;;;;;;5.18;0.85;;;20.20;43.40;;;;;;20823284;28;20060;-20
2021/03/07 01:43:46;;;;;;;2.35;0.75;;;20.20;43.60;;;;;;20818191;28;20120;-22
2021/03/07 01:53:46;;;;;;;3.60;1.10;;;20.40;43.80;;;;;;20818421;28;20053;-21
2021/03/07 02:03:53;;;;;;;1.93;0.80;;;20.20;43.80;;;;;;20875285;28;20047;-20
2021/03/07 02:13:55;;;;;;;2.90;0.82;;;20.10;43.90;;;;;;20892932;28;20459;-22
2021/03/07 02:24:04;;;;;;;4.30;0.77;;;19.90;43.90;;;;;;20908941;28;20075;-21
2021/03/07 02:34:31;;;;;;;2.77;0.73;;;20.00;44.00;;;;;;20915636;28;20032;-20
2021/03/07 02:44:35;;;;;;;2.10;0.63;;;19.90;44.20;;;;;;20903160;28;20108;-21
2021/03/07 02:54:37;;;;;;;1.42;0.52;;;19.90;43.90;;;;;;20904952;28;20120;-20
2021/03/07 03:04:40;;;;;;;1.85;0.55;;;20.10;43.40;;;;;;20887126;28;20080;-20
2021/03/07 03:14:42;;;;;;;1.90;0.70;;;20.10;43.10;;;;;;20874473;28;20029;-20
2021/03/07 03:24:42;;;;;;;3.35;0.80;;;20.10;42.90;;;;;;20874670;28;20041;-20
2021/03/07 03:34:43;;;;;;;1.83;0.53;;;20.00;42.60;;;;;;20864129;28;20045;-22
2021/03/07 03:44:43;;;;;;;1.10;0.50;;;20.10;42.40;;;;;;20861695;28;20511;-20
2021/03/07 03:55:02;;;;;;;1.87;0.90;;;20.20;42.10;;;;;;20855232;28;20068;-21
2021/03/07 04:05:08;;;;;;;4.33;0.70;;;20.20;41.70;;;;;;20857291;28;20048;-20
2021/03/07 04:15:10;;;;;;;1.63;0.45;;;20.20;41.40;;;;;;20864609;28;20025;-20
2021/03/07 04:25:12;;;;;;;2.25;0.75;;;20.20;41.70;;;;;;20872699;28;20030;-22
2021/03/07 04:35:13;;;;;;;1.80;0.65;;;20.30;40.90;;;;;;20860503;28;20152;-21
2021/03/07 04:45:14;;;;;;;2.50;0.60;;;20.20;40.70;;;;;;20860068;28;20048;-22
2021/03/07 04:55:15;;;;;;;3.55;0.90;;;20.30;40.60;;;;;;20850655;28;20075;-19
2021/03/07 05:05:16;;;;;;;1.17;0.43;;;20.20;40.40;;;;;;20861890;28;20494;-22
2021/03/07 05:15:16;;;;;;;4.20;0.50;;;20.30;40.20;;;;;;20867297;28;20465;-22
2021/03/07 05:25:17;;;;;;;3.58;0.65;;;20.20;40.30;;;;;;20881247;28;20108;-22
2021/03/07 05:35:19;;;;;;;3.10;0.57;;;20.20;40.40;;;;;;20901556;28;20509;-22
2021/03/07 05:45:19;;;;;;;1.13;0.57;;;20.20;40.40;;;;;;20912218;28;20031;-21
2021/03/07 05:55:21;;;;;;;3.10;0.38;;;20.20;40.60;;;;;;20903392;28;20523;-20
2021/03/07 06:05:22;;;;;;;2.70;0.73;;;20.20;40.60;;;;;;20942847;23;20029;-21
2021/03/07 06:15:22;;;;;;;1.50;0.50;;;20.20;40.60;;;;;;20702197;28;20064;-22
2021/03/07 06:25:24;;;;;;;0.98;0.30;;;20.20;40.70;;;;;;20682081;28;20073;-22
2021/03/07 06:35:30;;;;;;;2.03;0.38;;;20.20;40.70;;;;;;20668941;28;20042;-24
2021/03/07 06:45:40;;;;;;;1.05;0.40;;;20.20;40.80;;;;;;20680350;28;20418;-25
2021/03/07 06:55:43;;;;;;;1.80;0.40;;;20.20;40.70;;;;;;20666335;28;20391;-24
2021/03/07 07:05:45;;;;;;;2.28;0.50;;;20.10;40.70;;;;;;20663410;28;20116;-24
2021/03/07 07:16:15;;;;;;;0.52;0.20;;;20.20;40.70;;;;;;20648567;28;20030;-22
2021/03/07 07:26:16;;;;;;;0.80;0.30;;;20.00;40.70;;;;;;20412727;29;20040;-21
2021/03/07 07:36:28;;;;;;;2.50;0.50;;;20.20;40.80;;;;;;20411583;29;20043;-24
2021/03/07 07:46:29;;;;;;;4.47;0.50;;;20.10;41.10;;;;;;20411127;29;20614;-22
2021/03/07 07:56:36;;;;;;;4.32;0.70;;;20.20;41.30;;;;;;20472557;28;20043;-22
2021/03/07 08:06:40;;;;;;;10.63;1.38;;;20.10;41.10;;;;;;20617248;28;20019;-22
2021/03/07 08:16:42;;;;;;;11.40;3.45;;;20.10;41.70;;;;;;20638667;28;20026;-22
2021/03/07 08:26:43;;;;;;;22.27;3.33;;;20.10;41.90;;;;;;20642099;28;20035;-21
2021/03/07 08:36:55;;;;;;;11.48;1.45;;;20.30;42.20;;;;;;20608533;28;20034;-21
2021/03/07 08:46:55;;;;;;;13.82;1.90;;;20.40;41.80;;;;;;20653814;28;20036;-25
2021/03/07 08:56:57;;;;;;;19.52;4.13;;;20.60;41.60;;;;;;20650714;28;20050;-24
2021/03/07 09:06:58;;;;;;;22.02;4.38;;;20.80;41.10;;;;;;20656298;28;20040;-25
2021/03/07 09:17:02;;;;;;;20.73;4.13;;;20.90;40.20;;;;;;20667481;28;20483;-23
2021/03/07 09:27:11;;;;;;;17.90;4.70;;;21.10;39.50;;;;;;20672601;28;20030;-23
2021/03/07 09:37:13;;;;;;;15.57;3.72;;;21.60;38.50;;;;;;20676092;28;20030;-24
2021/03/07 09:47:15;;;;;;;18.33;4.25;;;22.20;37.00;;;;;;20661585;28;20019;-20
2021/03/07 09:57:19;;;;;;;15.57;3.13;;;22.80;36.70;;;;;;20655352;28;20026;-23
2021/03/07 10:07:22;;;;;;;8.30;2.58;;;23.40;36.30;;;;;;20636567;28;20038;-23
2021/03/07 10:17:22;;;;;;;10.80;2.53;;;23.60;35.80;;;;;;20646733;28;20399;-19
2021/03/07 10:27:30;;;;;;;8.77;1.48;;;23.80;35.60;;;;;;20657542;28;20033;-23
2021/03/07 10:37:40;;;;;;;8.10;1.70;;;23.90;35.50;;;;;;20657691;28;20041;-25
2021/03/07 10:47:41;;;;;;;6.07;1.42;;;24.10;35.40;;;;;;20660063;28;20399;-22
2021/03/07 10:57:42;;;;;;;13.05;1.88;;;23.90;35.40;;;;;;20656093;28;20034;-25
2021/03/07 11:07:43;;;;;;;6.88;1.83;;;23.80;36.10;;;;;;20664310;28;20057;-25
2021/03/07 11:17:44;;;;;;;11.68;2.10;;;23.90;36.70;;;;;;20663427;28;20042;-25
2021/03/07 11:27:46;;;;;;;6.85;1.38;;;23.80;37.60;;;;;;20662953;28;20027;-24
2021/03/07 11:37:46;;;;;;;9.63;2.60;;;23.70;37.30;;;;;;20663140;28;20031;-21
2021/03/07 11:47:47;;;;;;;6.32;1.55;;;23.50;37.80;;;;;;20644251;28;20116;-23
2021/03/07 11:57:47;;;;;;;8.30;1.42;;;23.30;38.30;;;;;;20656307;28;20430;-20
2021/03/07 12:07:48;;;;;;;9.13;2.03;;;23.30;38.40;;;;;;20629315;28;20064;-20
2021/03/07 12:17:49;;;;;;;8.77;1.48;;;23.00;39.00;;;;;;20644494;28;20058;-24
2021/03/07 12:27:49;;;;;;;12.88;2.03;;;22.80;39.10;;;;;;20649258;28;20629;-21
2021/03/07 12:37:50;;;;;;;28.50;7.05;;;22.60;39.90;;;;;;20658645;28;20022;-26
2021/03/07 12:47:50;;;;;;;16.52;6.93;;;22.80;40.60;;;;;;20646162;28;20663;-20
2021/03/07 12:57:51;;;;;;;13.38;3.90;;;23.00;40.90;;;;;;20650556;28;20034;-23
2021/03/07 13:07:51;;;;;;;18.65;4.03;;;23.30;40.60;;;;;;20701299;23;20038;-20
2021/03/07 13:17:52;;;;;;;11.32;3.80;;;23.20;40.80;;;;;;20768518;28;20049;-19
2021/03/07 13:27:52;;;;;;;19.20;4.75;;;23.40;40.80;;;;;;20744495;28;20049;-19
2021/03/07 13:37:53;;;;;;;21.90;8.27;;;23.30;40.90;;;;;;20738789;28;20041;-21
2021/03/07 13:47:54;;;;;;;24.08;6.05;;;23.30;40.80;;;;;;20754351;28;20030;-20
2021/03/07 13:57:56;;;;;;;17.77;5.82;;;23.20;41.10;;;;;;20739660;28;20036;-20
2021/03/07 14:07:57;;;;;;;15.68;4.82;;;23.20;41.00;;;;;;20741295;28;20088;-20
2021/03/07 14:17:57;;;;;;;13.00;4.80;;;23.20;41.10;;;;;;20780580;28;20104;-19
2021/03/07 14:27:58;;;;;;;11.70;2.95;;;23.20;41.20;;;;;;20784101;28;20029;-20
2021/03/07 14:37:59;;;;;;;8.52;3.10;;;23.30;41.00;;;;;;20781653;28;20037;-18
2021/03/07 14:47:59;;;;;;;11.07;3.70;;;23.20;41.20;;;;;;20786205;28;20228;-20
2021/03/07 14:58:00;;;;;;;6.78;2.78;;;23.30;40.90;;;;;;20781138;28;20071;-21
2021/03/07 15:08:01;;;;;;;10.00;2.72;;;23.20;41.10;;;;;;20759355;28;20462;-19
2021/03/07 15:18:02;;;;;;;7.70;2.60;;;23.10;41.10;;;;;;20748560;28;20080;-21
2021/03/07 15:28:02;;;;;;;7.53;2.75;;;23.10;41.10;;;;;;20771745;28;20559;-22
2021/03/07 15:38:03;;;;;;;5.97;2.20;;;23.00;41.10;;;;;;20782581;28;20111;-21
2021/03/07 15:48:04;;;;;;;9.23;2.63;;;23.10;41.00;;;;;;20766100;28;20478;-20
2021/03/07 15:58:05;;;;;;;9.63;2.35;;;23.00;41.20;;;;;;20769604;28;20041;-20
2021/03/07 16:08:06;;;;;;;6.90;2.22;;;23.10;40.80;;;;;;20788246;28;20041;-20
2021/03/07 16:18:06;;;;;;;6.43;2.63;;;23.00;41.00;;;;;;20745025;28;20033;-21
2021/03/07 16:28:07;;;;;;;11.95;2.50;;;23.00;40.70;;;;;;20750559;28;20040;-19
2021/03/07 16:38:08;;;;;;;9.48;2.65;;;22.90;40.90;;;;;;20785219;28;20045;-20
2021/03/07 16:48:09;;;;;;;11.93;2.80;;;23.10;41.10;;;;;;20764722;28;20026;-19
2021/03/07 16:58:09;;;;;;;12.20;3.20;;;23.00;41.50;;;;;;20757989;28;20038;-20
2021/03/07 17:08:10;;;;;;;11.15;2.72;;;23.00;41.40;;;;;;20721209;28;20560;-20
2021/03/07 17:18:10;;;;;;;7.93;2.00;;;22.90;41.40;;;;;;20741906;28;20044;-21
2021/03/07 17:28:11;;;;;;;8.88;2.70;;;22.80;41.10;;;;;;20776527;28;20034;-19
2021/03/07 17:38:12;;;;;;;22.80;8.77;;;23.00;41.00;;;;;;20775651;28;20398;-19
2021/03/07 17:48:12;;;;;;;29.33;13.52;;;22.90;40.60;;;;;;20741619;28;20030;-22
2021/03/07 17:58:13;;;;;;;37.40;16.30;;;23.20;39.40;;;;;;20735348;28;20030;-19
2021/03/07 18:08:14;;;;;;;39.40;14.20;;;23.20;38.20;;;;;;20750877;28;20513;-19
2021/03/07 18:18:15;;;;;;;29.15;12.88;;;23.60;38.90;;;;;;20753829;28;20029;-20
2021/03/07 18:28:15;;;;;;;22.30;10.03;;;23.50;39.30;;;;;;20747284;28;20122;-19
2021/03/07 18:38:16;;;;;;;34.78;14.82;;;23.60;39.50;;;;;;20750583;28;20066;-21
2021/03/07 18:48:16;;;;;;;28.50;12.35;;;23.40;39.70;;;;;;20750168;28;20532;-21
2021/03/07 18:58:17;;;;;;;90.82;39.92;;;23.40;39.80;;;;;;20741902;28;20050;-21
2021/03/07 19:08:17;;;;;;;68.55;29.42;;;23.30;39.20;;;;;;20764901;23;20049;-23
2021/03/07 19:18:19;;;;;;;44.47;21.70;;;23.20;39.30;;;;;;20746611;28;20040;-20
2021/03/07 19:28:19;;;;;;;44.10;19.08;;;23.10;39.30;;;;;;20707591;28;20060;-24
2021/03/07 19:38:20;;;;;;;35.30;17.23;;;23.10;39.20;;;;;;20690940;28;20030;-25
2021/03/07 19:48:21;;;;;;;29.80;14.07;;;23.00;39.40;;;;;;20693947;28;20033;-24
2021/03/07 19:58:21;;;;;;;28.25;11.82;;;23.00;39.20;;;;;;20683540;28;20111;-24
2021/03/07 20:08:22;;;;;;;23.95;11.23;;;23.20;38.80;;;;;;20621758;28;20034;-25
2021/03/07 20:18:22;;;;;;;17.88;7.68;;;23.20;37.60;;;;;;20596252;28;20042;-22
2021/03/07 20:28:24;;;;;;;12.35;6.78;;;22.50;33.30;;;;;;20598280;28;20026;-21
2021/03/07 20:38:24;;;;;;;7.03;4.65;;;22.70;31.70;;;;;;20610023;28;20037;-19
2021/03/07 20:48:25;;;;;;;8.43;4.80;;;22.40;30.90;;;;;;20683921;28;20478;-20
2021/03/07 20:58:25;;;;;;;10.63;3.72;;;22.50;33.20;;;;;;20663669;28;20517;-23
2021/03/07 21:08:26;;;;;;;9.27;3.83;;;22.70;34.60;;;;;;20615626;28;20054;-23
2021/03/07 21:18:27;;;;;;;7.63;3.55;;;23.00;35.20;;;;;;20608343;28;20114;-26
2021/03/07 21:28:27;;;;;;;7.97;3.50;;;22.90;36.10;;;;;;20652772;28;20029;-24
2021/03/07 21:38:28;;;;;;;6.30;2.90;;;22.60;37.00;;;;;;20607759;28;20483;-21
2021/03/07 21:48:29;;;;;;;8.38;2.65;;;22.40;37.60;;;;;;20629957;28;20027;-24
2021/03/07 21:58:30;;;;;;;5.80;2.78;;;22.10;38.20;;;;;;20651944;28;20029;-21
2021/03/07 22:08:30;;;;;;;10.83;3.27;;;22.10;38.40;;;;;;20684410;28;20034;-23
2021/03/07 22:18:31;;;;;;;11.27;3.63;;;21.70;38.80;;;;;;20683272;28;20472;-19
2021/03/07 22:28:31;;;;;;;7.70;3.07;;;21.80;39.10;;;;;;20622089;28;20482;-21
2021/03/07 22:38:32;;;;;;;5.25;2.72;;;21.50;39.30;;;;;;20636600;28;20108;-22
2021/03/07 22:48:32;;;;;;;5.45;2.60;;;21.30;39.60;;;;;;20638368;28;20046;-24
2021/03/07 22:58:33;;;;;;;8.77;2.75;;;21.20;39.80;;;;;;20594582;28;20113;-25
2021/03/07 23:08:33;;;;;;;8.68;2.90;;;21.10;39.90;;;;;;20592506;28;20402;-20
2021/03/07 23:18:34;;;;;;;7.30;3.03;;;20.90;39.90;;;;;;20693878;28;20030;-22
2021/03/07 23:28:35;;;;;;;4.65;2.72;;;20.60;39.90;;;;;;20694115;28;20021;-23
2021/03/07 23:38:35;;;;;;;6.65;3.53;;;20.90;39.80;;;;;;20696167;28;20034;-23
2021/03/07 23:48:36;;;;;;;11.13;3.47;;;21.00;39.50;;;;;;20687181;28;20033;-25
2021/03/07 23:58:36;;;;;;;8.85;3.10;;;21.00;39.00;;;;;;20691153;28;20053;-22
